Terminal Aerodrome Forecast
Issued by NWS Shreveport, LA

Current Version | Previous Version | Text Only | Print | Product List | Glossary On
Versions: 1 2 3 4 5 6 7 8 9 10 11 12 13 14 15
000
FTUS44 KSHV 170000 AAA
TAFLFK
TAF AMD
KLFK 170025Z 1700/1724 VRB04KT P6SM VCTS SCT035CB SCT090 BKN250
      TEMPO 1700/1703 VRB13G22KT 1SM TSRA BKN020 OVC040CB
     FM170300 VRB03KT P6SM BKN250
      TEMPO 1710/1714 3SM BR BKN010
     FM171400 VRB03KT P6SM BKN025 BKN250
     FM171600 17005KT P6SM FEW035 BKN250
     FM171800 17005KT P6SM VCTS SCT040CB BKN120 BKN250=

USA.gov is the U.S. government's official web portal to all federal, state and local government web resources and services.